createdAt,value
2016-12-03T00:00:26.252Z,1011.45
2016-12-03T00:01:26.259Z,1011.47
2016-12-03T00:02:26.269Z,1011.5
2016-12-03T00:03:26.282Z,1011.52
2016-12-03T00:04:26.296Z,1011.49
2016-12-03T00:05:26.303Z,1011.52
2016-12-03T00:06:26.313Z,1011.53
2016-12-03T00:07:26.325Z,1011.53
2016-12-03T00:08:26.336Z,1011.52
2016-12-03T00:09:26.347Z,1011.49
2016-12-03T00:10:26.358Z,1011.51
2016-12-03T00:11:26.371Z,1011.5
2016-12-03T00:12:26.386Z,1011.52
2016-12-03T00:13:26.392Z,1011.5
2016-12-03T00:14:26.408Z,1011.51
2016-12-03T00:15:26.414Z,1011.53
2016-12-03T00:16:26.426Z,1011.51
2016-12-03T00:17:26.437Z,1011.54
2016-12-03T00:18:26.449Z,1011.55
2016-12-03T00:19:26.459Z,1011.5
2016-12-03T00:20:26.471Z,1011.49
2016-12-03T00:21:26.486Z,1011.48
2016-12-03T00:22:26.494Z,1011.5
2016-12-03T00:23:26.506Z,1011.51
2016-12-03T00:24:26.515Z,1011.46
2016-12-03T00:25:26.526Z,1011.49
2016-12-03T00:26:26.543Z,1011.45
2016-12-03T00:27:26.549Z,1011.48
2016-12-03T00:28:26.560Z,1011.48
2016-12-03T00:29:26.574Z,1011.51
2016-12-03T00:30:26.582Z,1011.45
2016-12-03T00:31:26.592Z,1011.48
2016-12-03T00:32:26.605Z,1011.52
2016-12-03T00:33:26.616Z,1011.51
2016-12-03T00:34:26.627Z,1011.55
2016-12-03T00:35:26.637Z,1011.56
2016-12-03T00:36:26.650Z,1011.54
2016-12-03T00:37:26.667Z,1011.52
2016-12-03T00:38:26.671Z,1011.53
2016-12-03T00:39:26.682Z,1011.51
2016-12-03T00:40:26.695Z,1011.46
2016-12-03T00:41:26.709Z,1011.48
2016-12-03T00:42:26.715Z,1011.42
2016-12-03T00:43:26.728Z,1011.43
2016-12-03T00:44:26.741Z,1011.44
2016-12-03T00:45:26.754Z,1011.46
2016-12-03T00:46:26.760Z,1011.45
2016-12-03T00:47:26.770Z,1011.46
2016-12-03T00:48:26.782Z,1011.41
2016-12-03T00:49:26.793Z,1011.44
2016-12-03T00:50:26.812Z,1011.49
2016-12-03T00:51:26.824Z,1011.44
2016-12-03T00:52:26.833Z,1011.43
2016-12-03T00:53:26.836Z,1011.44
2016-12-03T00:54:26.847Z,1011.43
2016-12-03T00:55:26.859Z,1011.45
2016-12-03T00:56:26.871Z,1011.46
2016-12-03T00:57:26.894Z,1011.46
2016-12-03T00:58:26.902Z,1011.47
2016-12-03T00:59:26.904Z,1011.46
2016-12-03T01:00:26.914Z,1011.44
2016-12-03T01:01:26.924Z,1011.45
2016-12-03T01:02:26.936Z,1011.46
2016-12-03T01:03:26.947Z,1011.5
2016-12-03T01:04:26.957Z,1011.47
2016-12-03T01:05:26.969Z,1011.47
2016-12-03T01:06:26.991Z,1011.5
2016-12-03T01:07:26.995Z,1011.48
2016-12-03T01:08:27.001Z,1011.5
2016-12-03T01:09:27.012Z,1011.46
2016-12-03T01:10:27.024Z,1011.49
2016-12-03T01:11:27.035Z,1011.48
2016-12-03T01:12:27.045Z,1011.49
2016-12-03T01:13:27.056Z,1011.52
2016-12-03T01:14:27.075Z,1011.51
2016-12-03T01:15:27.080Z,1011.58
2016-12-03T01:16:27.089Z,1011.51
2016-12-03T01:17:27.100Z,1011.52
2016-12-03T01:18:27.110Z,1011.52
2016-12-03T01:19:27.121Z,1011.5
2016-12-03T01:20:27.132Z,1011.49
2016-12-03T01:21:27.143Z,1011.49
2016-12-03T01:22:27.157Z,1011.52
2016-12-03T01:23:27.170Z,1011.48
2016-12-03T01:24:27.176Z,1011.49
2016-12-03T01:25:27.187Z,1011.53
2016-12-03T01:26:27.198Z,1011.49
2016-12-03T01:27:27.218Z,1011.52
2016-12-03T01:28:27.245Z,1011.55
2016-12-03T01:29:27.231Z,1011.56
2016-12-03T01:30:27.241Z,1011.57
2016-12-03T01:31:27.252Z,1011.56
2016-12-03T01:32:27.263Z,1011.57
2016-12-03T01:33:27.274Z,1011.57
2016-12-03T01:34:27.296Z,1011.59
2016-12-03T01:35:27.306Z,1011.61
2016-12-03T01:36:27.313Z,1011.57
2016-12-03T01:37:27.318Z,1011.57
2016-12-03T01:38:27.329Z,1011.55
2016-12-03T01:39:27.340Z,1011.54
2016-12-03T01:40:27.350Z,1011.53
2016-12-03T01:41:27.361Z,1011.57
2016-12-03T01:42:27.371Z,1011.55
2016-12-03T01:43:27.387Z,1011.58
2016-12-03T01:44:27.397Z,1011.58
2016-12-03T01:45:27.405Z,1011.5
2016-12-03T01:46:27.422Z,1011.53
2016-12-03T01:47:27.435Z,1011.52
2016-12-03T01:48:27.441Z,1011.55
2016-12-03T01:49:27.448Z,1011.53
2016-12-03T01:50:27.458Z,1011.5
2016-12-03T01:51:27.470Z,1011.5
2016-12-03T01:52:27.479Z,1011.47
2016-12-03T01:53:27.491Z,1011.52
2016-12-03T01:54:27.503Z,1011.51
2016-12-03T01:55:27.514Z,1011.48
2016-12-03T01:56:27.551Z,1011.5
2016-12-03T01:57:27.536Z,1011.53
2016-12-03T01:58:27.547Z,1011.52
2016-12-03T01:59:27.556Z,1011.54
2016-12-03T02:00:27.577Z,1011.55
2016-12-03T02:01:27.588Z,1011.59
2016-12-03T02:02:27.598Z,1011.59
2016-12-03T02:03:27.600Z,1011.61
2016-12-03T02:04:27.610Z,1011.6
2016-12-03T02:05:27.621Z,1011.62
2016-12-03T02:06:27.631Z,1011.67
2016-12-03T02:07:27.642Z,1011.64
2016-12-03T02:08:27.655Z,1011.6
2016-12-03T02:09:27.665Z,1011.6
2016-12-03T02:10:27.676Z,1011.62
2016-12-03T02:11:27.690Z,1011.62
2016-12-03T02:12:27.709Z,1011.59
2016-12-03T02:13:27.713Z,1011.61
2016-12-03T02:14:27.717Z,1011.6
2016-12-03T02:15:27.729Z,1011.6
2016-12-03T02:16:27.739Z,1011.61
2016-12-03T02:17:27.749Z,1011.64
2016-12-03T02:18:27.760Z,1011.62
2016-12-03T02:19:27.771Z,1011.62
2016-12-03T02:20:27.782Z,1011.65
2016-12-03T02:21:27.793Z,1011.65
2016-12-03T02:22:27.803Z,1011.67
2016-12-03T02:23:27.815Z,1011.67
2016-12-03T02:24:27.835Z,1011.67
2016-12-03T02:25:27.841Z,1011.66
2016-12-03T02:26:27.846Z,1011.67
2016-12-03T02:27:27.857Z,1011.69
2016-12-03T02:28:27.866Z,1011.68
2016-12-03T02:29:27.878Z,1011.7
2016-12-03T02:30:27.889Z,1011.64
2016-12-03T02:31:27.900Z,1011.63
2016-12-03T02:32:27.910Z,1011.65
2016-12-03T02:33:27.920Z,1011.64
2016-12-03T02:34:27.944Z,1011.66
2016-12-03T02:35:27.953Z,1011.65
2016-12-03T02:36:27.959Z,1011.69
2016-12-03T02:37:27.971Z,1011.64
2016-12-03T02:38:27.973Z,1011.65
2016-12-03T02:39:27.984Z,1011.67
2016-12-03T02:40:27.994Z,1011.66
2016-12-03T02:41:28.005Z,1011.65
2016-12-03T02:42:28.016Z,1011.71
2016-12-03T02:43:28.026Z,1011.66
2016-12-03T02:44:28.046Z,1011.66
2016-12-03T02:45:28.057Z,1011.69
2016-12-03T02:46:28.061Z,1011.71
2016-12-03T02:47:28.068Z,1011.7
2016-12-03T02:48:28.080Z,1011.68
2016-12-03T02:49:28.095Z,1011.67
2016-12-03T02:50:28.102Z,1011.67
2016-12-03T02:51:28.110Z,1011.65
2016-12-03T02:52:28.152Z,1011.69
2016-12-03T02:53:28.132Z,1011.67
2016-12-03T02:54:28.142Z,1011.67
2016-12-03T02:55:28.153Z,1011.69
2016-12-03T02:56:28.163Z,1011.69
2016-12-03T02:57:28.175Z,1011.68
2016-12-03T02:58:28.183Z,1011.64
2016-12-03T02:59:28.195Z,1011.63
2016-12-03T03:00:28.206Z,1011.66
2016-12-03T03:01:28.224Z,1011.67
2016-12-03T03:02:28.231Z,1011.65
2016-12-03T03:03:28.236Z,1011.61
2016-12-03T03:04:28.247Z,1011.64
2016-12-03T03:05:28.256Z,1011.63
2016-12-03T03:06:28.268Z,1011.65
2016-12-03T03:07:28.281Z,1011.63
2016-12-03T03:08:28.290Z,1011.66
2016-12-03T03:09:28.299Z,1011.62
2016-12-03T03:10:28.319Z,1011.6
2016-12-03T03:11:28.328Z,1011.62
2016-12-03T03:12:28.330Z,1011.59
2016-12-03T03:13:28.341Z,1011.6
2016-12-03T03:14:28.352Z,1011.58
2016-12-03T03:15:28.362Z,1011.6
2016-12-03T03:16:28.373Z,1011.6
2016-12-03T03:17:28.382Z,1011.61
2016-12-03T03:18:28.429Z,1011.58
2016-12-03T03:19:28.404Z,1011.63
2016-12-03T03:20:28.414Z,1011.61
2016-12-03T03:21:28.426Z,1011.6
2016-12-03T03:22:28.436Z,1011.61
2016-12-03T03:23:28.445Z,1011.57
2016-12-03T03:24:28.457Z,1011.65
2016-12-03T03:25:28.468Z,1011.62
2016-12-03T03:26:28.478Z,1011.63
2016-12-03T03:27:28.488Z,1011.62
2016-12-03T03:28:28.499Z,1011.69
2016-12-03T03:29:28.509Z,1011.6
2016-12-03T03:30:28.520Z,1011.58
2016-12-03T03:31:28.532Z,1011.57
2016-12-03T03:32:28.541Z,1011.61
2016-12-03T03:33:28.552Z,1011.58
2016-12-03T03:34:28.560Z,1011.61
2016-12-03T03:35:28.572Z,1011.57
2016-12-03T03:36:28.584Z,1011.58
2016-12-03T03:37:28.596Z,1011.58
2016-12-03T03:38:28.603Z,1011.62
2016-12-03T03:39:28.621Z,1011.59
2016-12-03T03:40:28.633Z,1011.61
2016-12-03T03:41:28.646Z,1011.61
2016-12-03T03:42:28.651Z,1011.63
2016-12-03T03:43:28.654Z,1011.6
2016-12-03T03:44:28.666Z,1011.64
2016-12-03T03:45:28.675Z,1011.61
2016-12-03T03:46:28.693Z,1011.63
2016-12-03T03:47:28.697Z,1011.61
2016-12-03T03:48:28.735Z,1011.67
2016-12-03T03:49:28.718Z,1011.66
2016-12-03T03:50:28.727Z,1011.66
2016-12-03T03:51:28.737Z,1011.67
2016-12-03T03:52:28.747Z,1011.71
2016-12-03T03:53:28.758Z,1011.73
2016-12-03T03:54:28.768Z,1011.73
2016-12-03T03:55:28.779Z,1011.78
2016-12-03T03:56:28.788Z,1011.77
2016-12-03T03:57:28.799Z,1011.77
2016-12-03T03:58:28.817Z,1011.77
2016-12-03T03:59:28.825Z,1011.75
2016-12-03T04:00:28.834Z,1011.75
2016-12-03T04:01:28.839Z,1011.73
2016-12-03T04:02:28.849Z,1011.78
2016-12-03T04:03:28.859Z,1011.78
2016-12-03T04:04:28.870Z,1011.76
2016-12-03T04:05:28.880Z,1011.77
2016-12-03T04:06:28.889Z,1011.76
2016-12-03T04:07:28.900Z,1011.75
2016-12-03T04:08:28.910Z,1011.74
2016-12-03T04:09:28.921Z,1011.69
2016-12-03T04:10:28.931Z,1011.74
2016-12-03T04:11:28.941Z,1011.77
2016-12-03T04:12:28.961Z,1011.81
2016-12-03T04:13:28.966Z,1011.73
2016-12-03T04:14:28.971Z,1011.77
2016-12-03T04:15:28.981Z,1011.77
2016-12-03T04:16:28.992Z,1011.79
2016-12-03T04:17:29.002Z,1011.79
2016-12-03T04:18:29.010Z,1011.85
2016-12-03T04:19:29.053Z,1011.83
2016-12-03T04:20:29.066Z,1011.85
2016-12-03T04:21:29.045Z,1011.87
2016-12-03T04:22:29.053Z,1011.87
2016-12-03T04:23:29.063Z,1011.89
2016-12-03T04:24:29.073Z,1011.92
2016-12-03T04:25:29.082Z,1011.89
2016-12-03T04:26:29.093Z,1011.92
2016-12-03T04:27:29.104Z,1011.9
2016-12-03T04:28:29.113Z,1011.9
2016-12-03T04:29:29.125Z,1011.88
2016-12-03T04:30:29.134Z,1011.9
2016-12-03T04:31:29.144Z,1011.94
2016-12-03T04:32:29.162Z,1011.94
2016-12-03T04:33:29.170Z,1011.96
2016-12-03T04:34:29.174Z,1011.97
2016-12-03T04:35:29.185Z,1011.99
2016-12-03T04:36:29.194Z,1011.96
2016-12-03T04:37:29.205Z,1012
2016-12-03T04:38:29.214Z,1012
2016-12-03T04:39:29.226Z,1011.99
2016-12-03T04:40:29.235Z,1011.98
2016-12-03T04:41:29.245Z,1012.05
2016-12-03T04:42:29.258Z,1011.99
2016-12-03T04:43:29.267Z,1012
2016-12-03T04:44:29.276Z,1012.02
2016-12-03T04:45:29.287Z,1012.02
2016-12-03T04:46:29.297Z,1012.05
2016-12-03T04:47:29.310Z,1012.01
2016-12-03T04:48:29.326Z,1012.02
2016-12-03T04:49:29.332Z,1012.03
2016-12-03T04:50:29.338Z,1012.04
2016-12-03T04:51:29.346Z,1012.07
2016-12-03T04:52:29.359Z,1012.01
2016-12-03T04:53:29.369Z,1012.08
2016-12-03T04:54:29.379Z,1012.04
2016-12-03T04:55:29.389Z,1012.06
2016-12-03T04:56:29.398Z,1012.06
2016-12-03T04:57:29.410Z,1012.08
2016-12-03T04:58:29.418Z,1012.1
2016-12-03T04:59:29.428Z,1012.1
2016-12-03T05:00:29.439Z,1012.12
2016-12-03T05:01:29.450Z,1012.13
2016-12-03T05:02:29.459Z,1012.09
2016-12-03T05:03:29.470Z,1012.1
2016-12-03T05:04:29.484Z,1012.15
2016-12-03T05:05:29.492Z,1012.14
2016-12-03T05:06:29.503Z,1012.14
2016-12-03T05:07:29.544Z,1012.21
2016-12-03T05:08:29.524Z,1012.23
2016-12-03T05:09:29.532Z,1012.21
2016-12-03T05:10:29.541Z,1012.2
2016-12-03T05:11:29.552Z,1012.22
2016-12-03T05:12:29.562Z,1012.23
2016-12-03T05:13:29.582Z,1012.2
2016-12-03T05:14:29.587Z,1012.25
2016-12-03T05:15:29.592Z,1012.2
2016-12-03T05:16:29.600Z,1012.21
2016-12-03T05:17:29.612Z,1012.22
2016-12-03T05:18:29.621Z,1012.19
2016-12-03T05:19:29.633Z,1012.2
2016-12-03T05:20:29.641Z,1012.21
2016-12-03T05:21:29.652Z,1012.17
2016-12-03T05:22:29.669Z,1012.2
2016-12-03T05:23:29.674Z,1012.22
2016-12-03T05:24:29.681Z,1012.23
2016-12-03T05:25:29.693Z,1012.26
2016-12-03T05:26:29.713Z,1012.28
2016-12-03T05:27:29.725Z,1012.34
2016-12-03T05:28:29.732Z,1012.33
2016-12-03T05:29:29.743Z,1012.34
2016-12-03T05:30:29.754Z,1012.35
2016-12-03T05:31:29.761Z,1012.39
2016-12-03T05:32:29.769Z,1012.4
2016-12-03T05:33:29.774Z,1012.4
2016-12-03T05:34:29.784Z,1012.43
2016-12-03T05:35:29.793Z,1012.41
2016-12-03T05:36:29.804Z,1012.4
2016-12-03T05:37:29.813Z,1012.41
2016-12-03T05:38:29.823Z,1012.4
2016-12-03T05:39:29.833Z,1012.4
2016-12-03T05:40:29.843Z,1012.43
2016-12-03T05:41:29.855Z,1012.4
2016-12-03T05:42:29.874Z,1012.37
2016-12-03T05:43:29.881Z,1012.42
2016-12-03T05:44:29.889Z,1012.42
2016-12-03T05:45:29.894Z,1012.45
2016-12-03T05:46:29.903Z,1012.44
2016-12-03T05:47:29.913Z,1012.48
2016-12-03T05:48:29.922Z,1012.54
2016-12-03T05:49:29.933Z,1012.53
2016-12-03T05:50:29.949Z,1012.58
2016-12-03T05:51:29.953Z,1012.58
2016-12-03T05:52:29.963Z,1012.62
2016-12-03T05:53:29.974Z,1012.65
2016-12-03T05:54:29.991Z,1012.62
2016-12-03T05:55:30.000Z,1012.62
2016-12-03T05:56:30.003Z,1012.63
2016-12-03T05:57:30.012Z,1012.66
2016-12-03T05:58:30.026Z,1012.63
2016-12-03T05:59:30.032Z,1012.62
2016-12-03T06:00:30.042Z,1012.62
2016-12-03T06:01:30.053Z,1012.61
2016-12-03T06:02:30.071Z,1012.61
2016-12-03T06:03:30.076Z,1012.6
2016-12-03T06:04:30.082Z,1012.57
2016-12-03T06:05:30.094Z,1012.59
2016-12-03T06:06:30.102Z,1012.62
2016-12-03T06:07:30.113Z,1012.59
2016-12-03T06:08:30.122Z,1012.59
2016-12-03T06:09:30.133Z,1012.64
2016-12-03T06:10:30.143Z,1012.65
2016-12-03T06:11:30.160Z,1012.67
2016-12-03T06:12:30.171Z,1012.69
2016-12-03T06:13:30.185Z,1012.7
2016-12-03T06:14:30.185Z,1012.75
2016-12-03T06:15:30.192Z,1012.74
2016-12-03T06:16:30.202Z,1012.77
2016-12-03T06:17:30.212Z,1012.8
2016-12-03T06:18:30.222Z,1012.78
2016-12-03T06:19:30.232Z,1012.77
2016-12-03T06:20:30.241Z,1012.83
2016-12-03T06:21:30.255Z,1012.76
2016-12-03T06:22:30.262Z,1012.76
2016-12-03T06:23:30.271Z,1012.77
2016-12-03T06:24:30.283Z,1012.73
2016-12-03T06:25:30.304Z,1012.73
2016-12-03T06:26:30.312Z,1012.73
2016-12-03T06:27:30.323Z,1012.75
2016-12-03T06:28:30.329Z,1012.71
2016-12-03T06:29:30.331Z,1012.79
2016-12-03T06:30:30.340Z,1012.77
2016-12-03T06:31:30.354Z,1012.77
2016-12-03T06:32:30.361Z,1012.82
2016-12-03T06:33:30.370Z,1012.82
2016-12-03T06:34:30.384Z,1012.79
2016-12-03T06:35:30.391Z,1012.89
2016-12-03T06:36:30.401Z,1012.88
2016-12-03T06:37:30.426Z,1012.86
2016-12-03T06:38:30.419Z,1012.87
2016-12-03T06:39:30.430Z,1012.84
2016-12-03T06:40:30.446Z,1012.85
2016-12-03T06:41:30.456Z,1012.86
2016-12-03T06:42:30.461Z,1012.86
2016-12-03T06:43:30.470Z,1012.84
2016-12-03T06:44:30.482Z,1012.87
2016-12-03T06:45:30.490Z,1012.86
2016-12-03T06:46:30.501Z,1012.89
2016-12-03T06:47:30.511Z,1012.85
2016-12-03T06:48:30.524Z,1012.89
2016-12-03T06:49:30.530Z,1012.89
2016-12-03T06:50:30.541Z,1012.94
2016-12-03T06:51:30.551Z,1012.98
2016-12-03T06:52:30.561Z,1012.97
2016-12-03T06:53:30.570Z,1012.95
2016-12-03T06:54:30.582Z,1012.98
2016-12-03T06:55:30.626Z,1012.97
2016-12-03T06:56:30.600Z,1012.96
2016-12-03T06:57:30.611Z,1012.97
2016-12-03T06:58:30.661Z,1012.96
2016-12-03T06:59:30.629Z,1012.95
2016-12-03T07:00:30.639Z,1012.9
2016-12-03T07:01:30.652Z,1012.95
2016-12-03T07:02:30.659Z,1012.97
2016-12-03T07:03:30.669Z,1012.97
2016-12-03T07:04:30.679Z,1013
2016-12-03T07:05:30.689Z,1013
2016-12-03T07:06:30.699Z,1013.05
2016-12-03T07:07:30.715Z,1013.05
2016-12-03T07:08:30.721Z,1013.04
2016-12-03T07:09:30.766Z,1013.05
2016-12-03T07:10:30.738Z,1013.04
2016-12-03T07:11:30.749Z,1013.09
2016-12-03T07:12:30.759Z,1013.07
2016-12-03T07:13:30.770Z,1013.12
2016-12-03T07:14:30.778Z,1013.11
2016-12-03T07:15:30.787Z,1013.13
2016-12-03T07:16:30.798Z,1013.11
2016-12-03T07:17:30.813Z,1013.17
2016-12-03T07:18:30.817Z,1013.19
2016-12-03T07:19:30.829Z,1013.23
2016-12-03T07:20:30.838Z,1013.23
2016-12-03T07:21:30.847Z,1013.26
2016-12-03T07:22:30.857Z,1013.28
2016-12-03T07:23:30.867Z,1013.25
2016-12-03T07:24:30.875Z,1013.27
2016-12-03T07:25:30.887Z,1013.22
2016-12-03T07:26:30.954Z,1013.27
2016-12-03T07:27:30.909Z,1013.22
2016-12-03T07:28:30.915Z,1013.23
2016-12-03T07:29:30.927Z,1013.26
2016-12-03T07:30:30.936Z,1013.28
2016-12-03T07:31:30.946Z,1013.26
2016-12-03T07:32:30.956Z,1013.33
2016-12-03T07:33:30.965Z,1013.33
2016-12-03T07:34:30.981Z,1013.34
2016-12-03T07:35:30.985Z,1013.36
2016-12-03T07:36:31.045Z,1013.34
2016-12-03T07:37:31.006Z,1013.35
2016-12-03T07:38:31.016Z,1013.37
2016-12-03T07:39:31.030Z,1013.36
2016-12-03T07:40:31.038Z,1013.39
2016-12-03T07:41:31.044Z,1013.38
2016-12-03T07:42:31.056Z,1013.36
2016-12-03T07:43:31.066Z,1013.37
2016-12-03T07:44:31.075Z,1013.37
2016-12-03T07:45:31.084Z,1013.35
2016-12-03T07:46:31.146Z,1013.39
2016-12-03T07:47:31.107Z,1013.4
2016-12-03T07:48:31.115Z,1013.4
2016-12-03T07:49:31.124Z,1013.43
2016-12-03T07:50:31.133Z,1013.41
2016-12-03T07:51:31.200Z,1013.41
2016-12-03T07:52:31.153Z,1013.42
2016-12-03T07:53:31.163Z,1013.41
2016-12-03T07:54:31.173Z,1013.36
2016-12-03T07:55:31.183Z,1013.4
2016-12-03T07:56:31.192Z,1013.39
2016-12-03T07:57:31.202Z,1013.38
2016-12-03T07:58:31.212Z,1013.37
2016-12-03T07:59:31.221Z,1013.41
2016-12-03T08:00:31.231Z,1013.45
2016-12-03T08:01:31.241Z,1013.43
2016-12-03T08:02:31.251Z,1013.46
2016-12-03T08:03:31.262Z,1013.42
2016-12-03T08:04:31.275Z,1013.43
2016-12-03T08:05:31.282Z,1013.42
2016-12-03T08:06:31.290Z,1013.41
2016-12-03T08:07:31.300Z,1013.44
2016-12-03T08:08:31.321Z,1013.42
2016-12-03T08:09:31.327Z,1013.37
2016-12-03T08:10:31.334Z,1013.4
2016-12-03T08:11:31.390Z,1013.37
2016-12-03T08:12:31.359Z,1013.33
2016-12-03T08:13:31.367Z,1013.35
2016-12-03T08:14:31.376Z,1013.38
2016-12-03T08:15:31.381Z,1013.39
2016-12-03T08:16:31.389Z,1013.41
2016-12-03T08:17:31.401Z,1013.41
2016-12-03T08:18:31.410Z,1013.45
2016-12-03T08:19:31.419Z,1013.49
2016-12-03T08:20:31.430Z,1013.51
2016-12-03T08:21:31.438Z,1013.58
2016-12-03T08:22:31.449Z,1013.56
2016-12-03T08:23:31.459Z,1013.58
2016-12-03T08:24:31.469Z,1013.59
2016-12-03T08:25:31.478Z,1013.57
2016-12-03T08:26:31.540Z,1013.62
2016-12-03T08:27:31.498Z,1013.59
2016-12-03T08:28:31.518Z,1013.57
2016-12-03T08:29:31.524Z,1013.63
2016-12-03T08:30:31.527Z,1013.59
2016-12-03T08:31:31.537Z,1013.62
2016-12-03T08:32:31.548Z,1013.6
2016-12-03T08:33:31.557Z,1013.62
2016-12-03T08:34:31.566Z,1013.62
2016-12-03T08:35:31.585Z,1013.66
2016-12-03T08:36:31.637Z,1013.64
2016-12-03T08:37:31.596Z,1013.63
2016-12-03T08:38:31.605Z,1013.67
2016-12-03T08:39:31.621Z,1013.7
2016-12-03T08:40:31.627Z,1013.68
2016-12-03T08:41:31.647Z,1013.69
2016-12-03T08:42:31.652Z,1013.7
2016-12-03T08:43:31.656Z,1013.67
2016-12-03T08:44:31.667Z,1013.75
2016-12-03T08:45:31.676Z,1013.74
2016-12-03T08:46:31.686Z,1013.74
2016-12-03T08:47:31.696Z,1013.76
2016-12-03T08:48:31.705Z,1013.74
2016-12-03T08:49:31.715Z,1013.76
2016-12-03T08:50:31.727Z,1013.86
2016-12-03T08:51:31.785Z,1013.82
2016-12-03T08:52:31.745Z,1013.85
2016-12-03T08:53:31.768Z,1013.84
2016-12-03T08:54:31.771Z,1013.87
2016-12-03T08:55:31.776Z,1013.89
2016-12-03T08:56:31.784Z,1013.94
2016-12-03T08:57:31.796Z,1013.95
2016-12-03T08:58:31.829Z,1013.98
2016-12-03T08:59:31.814Z,1014.01
2016-12-03T09:00:31.825Z,1014.04
2016-12-03T09:01:31.846Z,1014.04
2016-12-03T09:02:31.851Z,1014.02
2016-12-03T09:03:31.855Z,1014.05
2016-12-03T09:04:31.865Z,1014.05
2016-12-03T09:05:31.875Z,1014.04
2016-12-03T09:06:31.886Z,1014.04
2016-12-03T09:07:31.894Z,1014.04
2016-12-03T09:08:31.905Z,1014.03
2016-12-03T09:09:31.915Z,1014.02
2016-12-03T09:10:31.927Z,1014.08
2016-12-03T09:11:31.984Z,1014.04
2016-12-03T09:12:31.946Z,1014.09
2016-12-03T09:13:31.956Z,1014.11
2016-12-03T09:14:31.965Z,1014.11
2016-12-03T09:15:31.978Z,1014.16
2016-12-03T09:16:31.987Z,1014.12
2016-12-03T09:17:31.995Z,1014.17
2016-12-03T09:18:32.017Z,1014.14
2016-12-03T09:19:32.017Z,1014.17
2016-12-03T09:20:32.028Z,1014.11
2016-12-03T09:21:32.040Z,1014.14
2016-12-03T09:22:32.045Z,1014.18
2016-12-03T09:23:32.056Z,1014.23
2016-12-03T09:24:32.072Z,1014.21
2016-12-03T09:25:32.076Z,1014.23
2016-12-03T09:26:32.136Z,1014.22
2016-12-03T09:27:32.096Z,1014.15
2016-12-03T09:28:32.115Z,1014.16
2016-12-03T09:29:32.119Z,1014.16
2016-12-03T09:30:32.126Z,1014.18
2016-12-03T09:31:32.191Z,1014.16
2016-12-03T09:32:32.176Z,1014.22
2016-12-03T09:33:32.167Z,1014.23
2016-12-03T09:34:32.172Z,1014.22
2016-12-03T09:35:32.179Z,1014.2
2016-12-03T09:36:32.190Z,1014.22
2016-12-03T09:37:32.198Z,1014.19
2016-12-03T09:38:32.215Z,1014.23
2016-12-03T09:39:32.228Z,1014.23
2016-12-03T09:40:32.227Z,1014.23
2016-12-03T09:41:32.288Z,1014.18
2016-12-03T09:42:32.248Z,1014.2
2016-12-03T09:43:32.267Z,1014.19
2016-12-03T09:44:32.277Z,1014.18
2016-12-03T09:45:32.284Z,1014.22
2016-12-03T09:46:32.299Z,1014.17
2016-12-03T09:47:32.309Z,1014.2
2016-12-03T09:48:32.309Z,1014.18
2016-12-03T09:49:32.325Z,1014.2
2016-12-03T09:50:32.331Z,1014.22
2016-12-03T09:51:32.342Z,1014.21
2016-12-03T09:52:32.388Z,1014.22
2016-12-03T09:53:32.364Z,1014.21
2016-12-03T09:54:32.371Z,1014.24
2016-12-03T09:55:32.382Z,1014.23
2016-12-03T09:56:32.396Z,1014.28
2016-12-03T09:57:32.403Z,1014.29
2016-12-03T09:58:32.413Z,1014.34
2016-12-03T09:59:32.423Z,1014.28
2016-12-03T10:00:32.434Z,1014.31
2016-12-03T10:01:32.443Z,1014.3
2016-12-03T10:02:32.454Z,1014.3
2016-12-03T10:03:32.464Z,1014.32
2016-12-03T10:04:32.474Z,1014.3
2016-12-03T10:05:32.484Z,1014.28
2016-12-03T10:06:32.495Z,1014.28
2016-12-03T10:07:32.512Z,1014.26
2016-12-03T10:08:32.524Z,1014.28
2016-12-03T10:09:32.531Z,1014.24
2016-12-03T10:10:32.536Z,1014.27
2016-12-03T10:11:32.548Z,1014.3
2016-12-03T10:12:32.557Z,1014.25
2016-12-03T10:13:32.567Z,1014.22
2016-12-03T10:14:32.578Z,1014.22
2016-12-03T10:15:32.590Z,1014.22
2016-12-03T10:16:32.651Z,1014.23
2016-12-03T10:17:32.635Z,1014.24
2016-12-03T10:18:32.620Z,1014.2
2016-12-03T10:19:32.631Z,1014.21
2016-12-03T10:20:32.642Z,1014.23
2016-12-03T10:21:32.652Z,1014.22
2016-12-03T10:22:32.663Z,1014.19
2016-12-03T10:23:32.676Z,1014.2
2016-12-03T10:24:32.683Z,1014.18
2016-12-03T10:25:32.694Z,1014.17
2016-12-03T10:26:32.705Z,1014.17
2016-12-03T10:27:32.721Z,1014.16
2016-12-03T10:28:32.725Z,1014.17
2016-12-03T10:29:32.736Z,1014.21
2016-12-03T10:30:32.746Z,1014.19
2016-12-03T10:31:32.756Z,1014.23
2016-12-03T10:32:32.767Z,1014.24
2016-12-03T10:33:32.778Z,1014.24
2016-12-03T10:34:32.827Z,1014.25
2016-12-03T10:35:32.798Z,1014.23
2016-12-03T10:36:32.810Z,1014.28
2016-12-03T10:37:32.848Z,1014.28
2016-12-03T10:38:32.860Z,1014.27
2016-12-03T10:39:32.846Z,1014.24
2016-12-03T10:40:32.860Z,1014.23
2016-12-03T10:41:32.864Z,1014.21
2016-12-03T10:42:32.876Z,1014.17
2016-12-03T10:43:32.914Z,1014.2
2016-12-03T10:44:32.972Z,1014.21
2016-12-03T10:45:32.904Z,1014.2
2016-12-03T10:46:32.918Z,1014.22
2016-12-03T10:47:32.928Z,1014.23
2016-12-03T10:48:32.941Z,1014.2
2016-12-03T10:49:32.946Z,1014.19
2016-12-03T10:50:32.959Z,1014.2
2016-12-03T10:51:33.221Z,1014.19
2016-12-03T10:52:33.044Z,1014.19
2016-12-03T10:53:32.990Z,1014.21
2016-12-03T10:54:33.033Z,1014.19
2016-12-03T10:55:33.012Z,1014.19
2016-12-03T10:56:33.078Z,1014.15
2016-12-03T10:57:33.032Z,1014.16
2016-12-03T10:58:33.045Z,1014.19
2016-12-03T10:59:33.085Z,1014.17
2016-12-03T11:00:33.071Z,1014.16
2016-12-03T11:01:33.126Z,1014.12
2016-12-03T11:02:33.102Z,1014.14
2016-12-03T11:03:33.099Z,1014.12
2016-12-03T11:04:33.110Z,1014.12
2016-12-03T11:05:33.120Z,1014.14
2016-12-03T11:06:33.130Z,1014.08
2016-12-03T11:07:33.141Z,1014.11
2016-12-03T11:08:33.152Z,1014.13
2016-12-03T11:09:33.163Z,1014.1
2016-12-03T11:10:33.175Z,1014.11
2016-12-03T11:11:33.185Z,1014.06
2016-12-03T11:12:33.206Z,1014.08
2016-12-03T11:13:33.208Z,1014.09
2016-12-03T11:14:33.218Z,1014.09
2016-12-03T11:15:33.228Z,1014.07
2016-12-03T11:16:33.290Z,1014.05
2016-12-03T11:17:33.251Z,1014.02
2016-12-03T11:18:33.262Z,1014.04
2016-12-03T11:19:33.273Z,1014.03
2016-12-03T11:20:33.287Z,1014.07
2016-12-03T11:21:33.348Z,1014.01
2016-12-03T11:22:33.308Z,1014
2016-12-03T11:23:33.317Z,1014.08
2016-12-03T11:24:33.333Z,1014.05
2016-12-03T11:25:33.343Z,1014.08
2016-12-03T11:26:33.351Z,1014.03
2016-12-03T11:27:33.364Z,1014.03
2016-12-03T11:28:33.376Z,1014.06
2016-12-03T11:29:33.387Z,1014.06
2016-12-03T11:30:33.404Z,1014.05
2016-12-03T11:31:33.413Z,1014.02
2016-12-03T11:32:33.422Z,1014.03
2016-12-03T11:33:33.432Z,1014.03
2016-12-03T11:34:33.446Z,1014.01
2016-12-03T11:35:33.456Z,1013.98
2016-12-03T11:36:33.466Z,1014
2016-12-03T11:37:33.476Z,1013.97
2016-12-03T11:38:33.489Z,1013.93
2016-12-03T11:39:33.502Z,1013.94
2016-12-03T11:40:33.511Z,1013.95
2016-12-03T11:41:33.524Z,1013.94
2016-12-03T11:42:33.535Z,1013.97
2016-12-03T11:43:33.545Z,1013.94
2016-12-03T11:44:33.556Z,1013.93
2016-12-03T11:45:33.572Z,1013.92
2016-12-03T11:46:33.580Z,1013.92
2016-12-03T11:47:33.589Z,1013.92
2016-12-03T11:48:33.601Z,1013.86
2016-12-03T11:49:33.614Z,1013.88
2016-12-03T11:50:33.627Z,1013.81
2016-12-03T11:51:33.636Z,1013.87
2016-12-03T11:52:33.649Z,1013.88
2016-12-03T11:53:33.663Z,1013.87
2016-12-03T11:54:33.675Z,1013.89
2016-12-03T11:55:33.682Z,1013.94
2016-12-03T11:56:33.745Z,1013.92
2016-12-03T11:57:33.707Z,1013.93
2016-12-03T11:58:33.718Z,1013.95
2016-12-03T11:59:33.730Z,1013.96
2016-12-03T12:00:33.739Z,1013.95
2016-12-03T12:01:33.754Z,1013.91
2016-12-03T12:02:33.764Z,1013.94
2016-12-03T12:03:33.776Z,1013.93
2016-12-03T12:04:33.787Z,1013.92
2016-12-03T12:05:33.801Z,1013.89
2016-12-03T12:06:33.810Z,1013.92
2016-12-03T12:07:33.822Z,1013.91
2016-12-03T12:08:33.838Z,1013.92